KGCY/GCY METAR and TAF weather

Enter ICAO airport designator
Station Type Date Time Source
KGCY METAR 2021/10/20 06:35 UTC NOAA

KGCY 200635Z AUTO 00000KT 10SM CLR 09/06 A3025 RMK A01


Station Type Date Time Source
KGCY Decoded METAR 2021/10/20 06:35 UTC NOAA

Station name not available
Oct 20, 2021 - 02:35 AM EDT / 2021.10.20 0635 UTC
Wind: Calm:0
Visibility: 10 mile(s):0
Sky conditions: clear
Temperature: 48 F (9 C)
Dew Point: 42 F (6 C)
Relative Humidity: 81%
Pressure (altimeter): 30.25 in. Hg (1024 hPa)
ob: KGCY 200635Z AUTO 00000KT 10SM CLR 09/06 A3025 RMK A01
cycle: 6

Station Type Date Time Source
KGCY TAF UTC NOAA

Error!

Example: see airport list